sensor_id;sensor_type;location;lat;lon;timestamp;P1;durP1;ratioP1;P2;durP2;ratioP2
9563;SDS011;4820;50.870;4.702;2022-12-29T00:02:08;1.35;;;1.25;;
9563;SDS011;4820;50.870;4.702;2022-12-29T00:04:34;1.48;;;1.02;;
9563;SDS011;4820;50.870;4.702;2022-12-29T00:07:00;1.85;;;1.13;;
9563;SDS011;4820;50.870;4.702;2022-12-29T00:09:26;2.90;;;1.10;;
9563;SDS011;4820;50.870;4.702;2022-12-29T00:11:52;1.95;;;1.33;;
9563;SDS011;4820;50.870;4.702;2022-12-29T00:14:17;1.15;;;0.90;;
9563;SDS011;4820;50.870;4.702;2022-12-29T00:17:03;1.75;;;1.20;;
9563;SDS011;4820;50.870;4.702;2022-12-29T00:19:28;1.77;;;1.02;;
9563;SDS011;4820;50.870;4.702;2022-12-29T00:22:13;1.55;;;1.10;;
9563;SDS011;4820;50.870;4.702;2022-12-29T00:24:57;2.58;;;1.00;;
9563;SDS011;4820;50.870;4.702;2022-12-29T00:27:26;2.03;;;0.85;;
9563;SDS011;4820;50.870;4.702;2022-12-29T00:30:13;1.75;;;1.02;;
9563;SDS011;4820;50.870;4.702;2022-12-29T00:33:11;1.40;;;0.90;;
9563;SDS011;4820;50.870;4.702;2022-12-29T00:36:04;1.70;;;1.00;;
9563;SDS011;4820;50.870;4.702;2022-12-29T00:38:35;4.05;;;1.05;;
9563;SDS011;4820;50.870;4.702;2022-12-29T00:41:20;2.45;;;1.20;;
9563;SDS011;4820;50.870;4.702;2022-12-29T00:44:04;1.38;;;1.00;;
9563;SDS011;4820;50.870;4.702;2022-12-29T00:46:34;2.15;;;1.00;;
9563;SDS011;4820;50.870;4.702;2022-12-29T00:49:00;2.42;;;1.10;;
9563;SDS011;4820;50.870;4.702;2022-12-29T00:51:45;2.47;;;0.90;;
9563;SDS011;4820;50.870;4.702;2022-12-29T00:54:11;2.20;;;1.15;;
9563;SDS011;4820;50.870;4.702;2022-12-29T00:56:37;1.83;;;1.10;;
9563;SDS011;4820;50.870;4.702;2022-12-29T00:59:04;4.13;;;1.20;;
9563;SDS011;4820;50.870;4.702;2022-12-29T01:01:35;1.67;;;1.00;;
9563;SDS011;4820;50.870;4.702;2022-12-29T01:04:02;3.28;;;1.20;;
9563;SDS011;4820;50.870;4.702;2022-12-29T01:06:29;4.75;;;1.40;;
9563;SDS011;4820;50.870;4.702;2022-12-29T01:08:55;2.45;;;1.20;;
9563;SDS011;4820;50.870;4.702;2022-12-29T01:11:39;2.40;;;1.10;;
9563;SDS011;4820;50.870;4.702;2022-12-29T01:14:05;2.22;;;0.95;;
9563;SDS011;4820;50.870;4.702;2022-12-29T01:16:31;2.63;;;1.15;;
9563;SDS011;4820;50.870;4.702;2022-12-29T01:18:57;3.30;;;1.10;;
9563;SDS011;4820;50.870;4.702;2022-12-29T01:21:22;3.78;;;1.17;;
9563;SDS011;4820;50.870;4.702;2022-12-29T01:23:48;2.72;;;1.10;;
9563;SDS011;4820;50.870;4.702;2022-12-29T01:26:15;3.15;;;1.15;;
9563;SDS011;4820;50.870;4.702;2022-12-29T01:28:41;2.75;;;1.20;;
9563;SDS011;4820;50.870;4.702;2022-12-29T01:31:07;2.97;;;1.50;;
9563;SDS011;4820;50.870;4.702;2022-12-29T01:33:34;3.85;;;1.10;;
9563;SDS011;4820;50.870;4.702;2022-12-29T01:36:04;3.08;;;1.13;;
9563;SDS011;4820;50.870;4.702;2022-12-29T01:38:33;3.13;;;1.27;;
9563;SDS011;4820;50.870;4.702;2022-12-29T01:41:00;3.20;;;1.27;;
9563;SDS011;4820;50.870;4.702;2022-12-29T01:46:13;2.78;;;1.33;;
9563;SDS011;4820;50.870;4.702;2022-12-29T01:51:53;3.90;;;1.30;;
9563;SDS011;4820;50.870;4.702;2022-12-29T01:54:24;4.03;;;1.50;;
9563;SDS011;4820;50.870;4.702;2022-12-29T01:56:50;5.25;;;1.50;;
9563;SDS011;4820;50.870;4.702;2022-12-29T01:59:19;2.80;;;1.33;;
9563;SDS011;4820;50.870;4.702;2022-12-29T02:01:50;4.35;;;1.90;;
9563;SDS011;4820;50.870;4.702;2022-12-29T02:04:16;3.05;;;1.60;;
9563;SDS011;4820;50.870;4.702;2022-12-29T02:09:49;2.92;;;1.35;;
9563;SDS011;4820;50.870;4.702;2022-12-29T02:12:18;3.40;;;1.50;;
9563;SDS011;4820;50.870;4.702;2022-12-29T02:14:46;4.35;;;1.50;;
9563;SDS011;4820;50.870;4.702;2022-12-29T02:17:18;2.22;;;1.40;;
9563;SDS011;4820;50.870;4.702;2022-12-29T02:22:58;3.35;;;1.40;;
9563;SDS011;4820;50.870;4.702;2022-12-29T02:31:50;2.00;;;1.20;;
9563;SDS011;4820;50.870;4.702;2022-12-29T02:37:20;2.25;;;1.20;;
9563;SDS011;4820;50.870;4.702;2022-12-29T02:40:06;2.30;;;1.15;;
9563;SDS011;4820;50.870;4.702;2022-12-29T02:42:55;2.13;;;1.23;;
9563;SDS011;4820;50.870;4.702;2022-12-29T02:51:04;2.78;;;1.33;;
9563;SDS011;4820;50.870;4.702;2022-12-29T02:53:37;2.03;;;1.10;;
9563;SDS011;4820;50.870;4.702;2022-12-29T02:56:22;2.60;;;1.10;;
9563;SDS011;4820;50.870;4.702;2022-12-29T02:58:48;1.38;;;1.00;;
9563;SDS011;4820;50.870;4.702;2022-12-29T03:01:26;1.70;;;1.10;;
9563;SDS011;4820;50.870;4.702;2022-12-29T03:04:37;2.00;;;1.20;;
9563;SDS011;4820;50.870;4.702;2022-12-29T03:10:08;1.25;;;0.68;;
9563;SDS011;4820;50.870;4.702;2022-12-29T03:12:53;1.10;;;0.50;;
9563;SDS011;4820;50.870;4.702;2022-12-29T03:18:44;2.67;;;0.73;;
9563;SDS011;4820;50.870;4.702;2022-12-29T03:21:44;2.53;;;0.90;;
9563;SDS011;4820;50.870;4.702;2022-12-29T03:24:41;1.40;;;0.80;;
9563;SDS011;4820;50.870;4.702;2022-12-29T03:27:10;1.15;;;0.65;;
9563;SDS011;4820;50.870;4.702;2022-12-29T03:29:51;1.10;;;0.70;;
9563;SDS011;4820;50.870;4.702;2022-12-29T03:32:23;1.52;;;0.60;;
9563;SDS011;4820;50.870;4.702;2022-12-29T03:34:54;1.70;;;0.63;;
9563;SDS011;4820;50.870;4.702;2022-12-29T03:37:21;1.17;;;0.57;;
9563;SDS011;4820;50.870;4.702;2022-12-29T03:39:51;1.52;;;0.80;;
9563;SDS011;4820;50.870;4.702;2022-12-29T03:42:18;1.55;;;0.90;;
9563;SDS011;4820;50.870;4.702;2022-12-29T03:44:46;1.70;;;0.50;;
9563;SDS011;4820;50.870;4.702;2022-12-29T03:47:13;2.38;;;0.60;;
9563;SDS011;4820;50.870;4.702;2022-12-29T03:49:40;2.95;;;0.90;;
9563;SDS011;4820;50.870;4.702;2022-12-29T03:52:05;1.98;;;1.00;;
9563;SDS011;4820;50.870;4.702;2022-12-29T03:54:31;1.20;;;0.88;;
9563;SDS011;4820;50.870;4.702;2022-12-29T03:56:57;2.00;;;0.80;;
9563;SDS011;4820;50.870;4.702;2022-12-29T03:59:23;1.40;;;1.10;;
9563;SDS011;4820;50.870;4.702;2022-12-29T04:01:49;2.45;;;1.17;;
9563;SDS011;4820;50.870;4.702;2022-12-29T04:04:15;2.15;;;0.93;;
9563;SDS011;4820;50.870;4.702;2022-12-29T04:06:41;1.90;;;1.17;;
9563;SDS011;4820;50.870;4.702;2022-12-29T04:09:06;2.83;;;1.05;;
9563;SDS011;4820;50.870;4.702;2022-12-29T04:11:34;4.07;;;1.10;;
9563;SDS011;4820;50.870;4.702;2022-12-29T04:14:00;3.30;;;1.10;;
9563;SDS011;4820;50.870;4.702;2022-12-29T04:16:25;4.78;;;1.35;;
9563;SDS011;4820;50.870;4.702;2022-12-29T04:18:51;3.53;;;1.27;;
9563;SDS011;4820;50.870;4.702;2022-12-29T04:21:17;5.43;;;1.15;;
9563;SDS011;4820;50.870;4.702;2022-12-29T04:23:42;3.17;;;1.48;;
9563;SDS011;4820;50.870;4.702;2022-12-29T04:26:08;4.63;;;1.00;;
9563;SDS011;4820;50.870;4.702;2022-12-29T04:28:34;2.95;;;1.10;;
9563;SDS011;4820;50.870;4.702;2022-12-29T04:31:03;4.05;;;1.30;;
9563;SDS011;4820;50.870;4.702;2022-12-29T04:33:29;5.10;;;1.40;;
9563;SDS011;4820;50.870;4.702;2022-12-29T04:35:55;2.58;;;1.00;;
9563;SDS011;4820;50.870;4.702;2022-12-29T04:38:22;3.47;;;1.20;;
9563;SDS011;4820;50.870;4.702;2022-12-29T04:40:48;4.47;;;1.23;;
9563;SDS011;4820;50.870;4.702;2022-12-29T04:43:14;3.67;;;1.15;;
9563;SDS011;4820;50.870;4.702;2022-12-29T04:45:43;2.67;;;1.27;;
9563;SDS011;4820;50.870;4.702;2022-12-29T04:48:10;4.38;;;1.13;;
9563;SDS011;4820;50.870;4.702;2022-12-29T04:50:36;3.50;;;1.35;;
9563;SDS011;4820;50.870;4.702;2022-12-29T04:53:02;2.53;;;1.00;;
9563;SDS011;4820;50.870;4.702;2022-12-29T04:55:28;3.30;;;1.17;;
9563;SDS011;4820;50.870;4.702;2022-12-29T04:57:53;2.95;;;1.27;;
9563;SDS011;4820;50.870;4.702;2022-12-29T05:00:19;3.47;;;1.13;;
9563;SDS011;4820;50.870;4.702;2022-12-29T05:02:45;4.75;;;1.25;;
9563;SDS011;4820;50.870;4.702;2022-12-29T05:05:11;2.38;;;0.98;;
9563;SDS011;4820;50.870;4.702;2022-12-29T05:07:36;4.18;;;1.15;;
9563;SDS011;4820;50.870;4.702;2022-12-29T05:10:02;4.25;;;1.40;;
9563;SDS011;4820;50.870;4.702;2022-12-29T05:12:29;3.63;;;1.10;;
9563;SDS011;4820;50.870;4.702;2022-12-29T05:14:59;3.15;;;1.10;;
9563;SDS011;4820;50.870;4.702;2022-12-29T05:17:25;5.18;;;1.60;;
9563;SDS011;4820;50.870;4.702;2022-12-29T05:19:51;3.72;;;1.40;;
9563;SDS011;4820;50.870;4.702;2022-12-29T05:22:17;5.60;;;1.48;;
9563;SDS011;4820;50.870;4.702;2022-12-29T05:24:43;4.45;;;1.45;;
9563;SDS011;4820;50.870;4.702;2022-12-29T05:27:08;4.90;;;1.45;;
9563;SDS011;4820;50.870;4.702;2022-12-29T05:29:34;4.20;;;1.67;;
9563;SDS011;4820;50.870;4.702;2022-12-29T05:32:00;5.35;;;1.25;;
9563;SDS011;4820;50.870;4.702;2022-12-29T05:34:25;3.15;;;1.30;;
9563;SDS011;4820;50.870;4.702;2022-12-29T05:36:51;4.88;;;1.52;;
9563;SDS011;4820;50.870;4.702;2022-12-29T05:39:17;5.55;;;1.60;;
9563;SDS011;4820;50.870;4.702;2022-12-29T05:41:42;3.85;;;1.40;;
9563;SDS011;4820;50.870;4.702;2022-12-29T05:44:09;4.35;;;1.50;;
9563;SDS011;4820;50.870;4.702;2022-12-29T05:46:36;5.30;;;1.30;;
9563;SDS011;4820;50.870;4.702;2022-12-29T05:49:01;5.45;;;1.48;;
9563;SDS011;4820;50.870;4.702;2022-12-29T05:51:27;4.18;;;1.30;;
9563;SDS011;4820;50.870;4.702;2022-12-29T05:53:53;4.32;;;1.25;;
9563;SDS011;4820;50.870;4.702;2022-12-29T05:56:18;6.10;;;1.92;;
9563;SDS011;4820;50.870;4.702;2022-12-29T05:58:44;5.00;;;1.77;;
9563;SDS011;4820;50.870;4.702;2022-12-29T06:01:10;5.43;;;1.80;;
9563;SDS011;4820;50.870;4.702;2022-12-29T06:03:36;4.97;;;1.48;;
9563;SDS011;4820;50.870;4.702;2022-12-29T06:06:01;4.45;;;1.25;;
9563;SDS011;4820;50.870;4.702;2022-12-29T06:08:27;5.32;;;1.52;;
9563;SDS011;4820;50.870;4.702;2022-12-29T06:10:53;5.38;;;1.35;;
9563;SDS011;4820;50.870;4.702;2022-12-29T06:13:18;3.42;;;1.45;;
9563;SDS011;4820;50.870;4.702;2022-12-29T06:15:44;3.75;;;1.50;;
9563;SDS011;4820;50.870;4.702;2022-12-29T06:18:09;4.97;;;1.50;;
9563;SDS011;4820;50.870;4.702;2022-12-29T06:20:35;4.85;;;1.52;;
9563;SDS011;4820;50.870;4.702;2022-12-29T06:23:01;4.90;;;1.33;;
9563;SDS011;4820;50.870;4.702;2022-12-29T06:25:26;4.18;;;1.60;;
9563;SDS011;4820;50.870;4.702;2022-12-29T06:27:53;5.50;;;1.92;;
9563;SDS011;4820;50.870;4.702;2022-12-29T06:30:19;7.18;;;1.60;;
9563;SDS011;4820;50.870;4.702;2022-12-29T06:32:45;6.22;;;1.50;;
9563;SDS011;4820;50.870;4.702;2022-12-29T06:35:11;7.05;;;1.65;;
9563;SDS011;4820;50.870;4.702;2022-12-29T06:37:37;3.90;;;1.42;;
9563;SDS011;4820;50.870;4.702;2022-12-29T06:40:02;4.75;;;1.70;;
9563;SDS011;4820;50.870;4.702;2022-12-29T06:42:28;6.65;;;1.58;;
9563;SDS011;4820;50.870;4.702;2022-12-29T06:44:54;5.55;;;1.33;;
9563;SDS011;4820;50.870;4.702;2022-12-29T06:47:22;5.35;;;1.52;;
9563;SDS011;4820;50.870;4.702;2022-12-29T06:49:48;8.25;;;1.67;;
9563;SDS011;4820;50.870;4.702;2022-12-29T06:52:14;5.53;;;1.73;;
9563;SDS011;4820;50.870;4.702;2022-12-29T06:54:40;4.90;;;1.58;;
9563;SDS011;4820;50.870;4.702;2022-12-29T06:57:06;6.65;;;1.55;;
9563;SDS011;4820;50.870;4.702;2022-12-29T06:59:32;5.28;;;1.92;;
9563;SDS011;4820;50.870;4.702;2022-12-29T07:01:57;4.63;;;1.77;;
9563;SDS011;4820;50.870;4.702;2022-12-29T07:04:23;6.68;;;1.52;;
9563;SDS011;4820;50.870;4.702;2022-12-29T07:06:49;4.40;;;1.70;;
9563;SDS011;4820;50.870;4.702;2022-12-29T07:09:14;4.97;;;1.85;;
9563;SDS011;4820;50.870;4.702;2022-12-29T07:11:40;4.38;;;1.45;;
9563;SDS011;4820;50.870;4.702;2022-12-29T07:14:06;4.60;;;1.58;;
9563;SDS011;4820;50.870;4.702;2022-12-29T07:16:32;5.63;;;1.70;;
9563;SDS011;4820;50.870;4.702;2022-12-29T07:18:59;7.50;;;2.08;;
9563;SDS011;4820;50.870;4.702;2022-12-29T07:21:24;6.57;;;1.98;;
9563;SDS011;4820;50.870;4.702;2022-12-29T07:23:50;4.93;;;1.42;;
9563;SDS011;4820;50.870;4.702;2022-12-29T07:26:19;5.00;;;2.00;;
9563;SDS011;4820;50.870;4.702;2022-12-29T07:28:45;3.83;;;1.50;;
9563;SDS011;4820;50.870;4.702;2022-12-29T07:31:18;5.10;;;1.52;;
9563;SDS011;4820;50.870;4.702;2022-12-29T07:33:47;7.72;;;2.00;;
9563;SDS011;4820;50.870;4.702;2022-12-29T07:36:14;6.38;;;1.63;;
9563;SDS011;4820;50.870;4.702;2022-12-29T07:38:40;4.47;;;1.67;;
9563;SDS011;4820;50.870;4.702;2022-12-29T07:41:06;6.18;;;1.60;;
9563;SDS011;4820;50.870;4.702;2022-12-29T07:43:33;5.85;;;1.70;;
9563;SDS011;4820;50.870;4.702;2022-12-29T07:45:59;5.85;;;1.67;;
9563;SDS011;4820;50.870;4.702;2022-12-29T07:48:25;5.70;;;1.70;;
9563;SDS011;4820;50.870;4.702;2022-12-29T07:50:51;4.93;;;1.60;;
9563;SDS011;4820;50.870;4.702;2022-12-29T07:53:18;4.93;;;1.70;;
9563;SDS011;4820;50.870;4.702;2022-12-29T07:55:44;7.88;;;2.15;;
9563;SDS011;4820;50.870;4.702;2022-12-29T07:58:09;7.90;;;2.13;;
9563;SDS011;4820;50.870;4.702;2022-12-29T08:00:35;5.20;;;1.98;;
9563;SDS011;4820;50.870;4.702;2022-12-29T08:03:01;5.78;;;1.70;;
9563;SDS011;4820;50.870;4.702;2022-12-29T08:05:27;7.80;;;2.10;;
9563;SDS011;4820;50.870;4.702;2022-12-29T08:07:52;7.47;;;2.10;;
9563;SDS011;4820;50.870;4.702;2022-12-29T08:10:18;6.70;;;1.95;;
9563;SDS011;4820;50.870;4.702;2022-12-29T08:12:44;5.03;;;1.92;;
9563;SDS011;4820;50.870;4.702;2022-12-29T08:15:10;7.15;;;1.80;;
9563;SDS011;4820;50.870;4.702;2022-12-29T08:17:37;4.53;;;1.90;;
9563;SDS011;4820;50.870;4.702;2022-12-29T08:20:03;6.40;;;1.75;;
9563;SDS011;4820;50.870;4.702;2022-12-29T08:22:30;7.55;;;2.10;;
9563;SDS011;4820;50.870;4.702;2022-12-29T08:24:55;7.65;;;2.20;;
9563;SDS011;4820;50.870;4.702;2022-12-29T08:27:21;6.38;;;1.88;;
9563;SDS011;4820;50.870;4.702;2022-12-29T08:29:47;7.40;;;2.13;;
9563;SDS011;4820;50.870;4.702;2022-12-29T08:32:13;9.07;;;2.05;;
9563;SDS011;4820;50.870;4.702;2022-12-29T08:34:39;7.72;;;2.00;;
9563;SDS011;4820;50.870;4.702;2022-12-29T08:37:04;5.70;;;1.85;;
9563;SDS011;4820;50.870;4.702;2022-12-29T08:39:30;5.85;;;2.03;;
9563;SDS011;4820;50.870;4.702;2022-12-29T08:41:56;8.40;;;2.10;;
9563;SDS011;4820;50.870;4.702;2022-12-29T08:44:21;6.55;;;2.38;;
9563;SDS011;4820;50.870;4.702;2022-12-29T08:46:47;7.05;;;1.92;;
9563;SDS011;4820;50.870;4.702;2022-12-29T08:49:13;5.90;;;1.90;;
9563;SDS011;4820;50.870;4.702;2022-12-29T08:51:38;5.38;;;2.10;;
9563;SDS011;4820;50.870;4.702;2022-12-29T08:54:04;5.07;;;1.83;;
9563;SDS011;4820;50.870;4.702;2022-12-29T08:56:30;6.47;;;2.03;;
9563;SDS011;4820;50.870;4.702;2022-12-29T08:58:56;6.32;;;1.80;;
9563;SDS011;4820;50.870;4.702;2022-12-29T09:01:21;6.57;;;1.95;;
9563;SDS011;4820;50.870;4.702;2022-12-29T09:03:47;5.05;;;1.88;;
9563;SDS011;4820;50.870;4.702;2022-12-29T09:06:14;5.75;;;2.00;;
9563;SDS011;4820;50.870;4.702;2022-12-29T09:08:40;6.72;;;2.10;;
9563;SDS011;4820;50.870;4.702;2022-12-29T09:11:17;7.63;;;2.30;;
9563;SDS011;4820;50.870;4.702;2022-12-29T09:13:44;7.25;;;1.92;;
9563;SDS011;4820;50.870;4.702;2022-12-29T09:16:11;6.50;;;1.92;;
9563;SDS011;4820;50.870;4.702;2022-12-29T09:18:37;7.95;;;2.10;;
9563;SDS011;4820;50.870;4.702;2022-12-29T09:21:03;6.43;;;2.60;;
9563;SDS011;4820;50.870;4.702;2022-12-29T09:23:30;6.97;;;2.08;;
9563;SDS011;4820;50.870;4.702;2022-12-29T09:25:56;7.85;;;2.00;;
9563;SDS011;4820;50.870;4.702;2022-12-29T09:28:22;6.93;;;2.17;;
9563;SDS011;4820;50.870;4.702;2022-12-29T09:30:48;5.45;;;2.05;;
9563;SDS011;4820;50.870;4.702;2022-12-29T09:33:14;7.57;;;2.22;;
9563;SDS011;4820;50.870;4.702;2022-12-29T09:35:41;5.57;;;1.90;;
9563;SDS011;4820;50.870;4.702;2022-12-29T09:38:15;6.78;;;2.13;;
9563;SDS011;4820;50.870;4.702;2022-12-29T09:40:43;7.63;;;2.22;;
9563;SDS011;4820;50.870;4.702;2022-12-29T09:46:15;6.25;;;2.30;;
9563;SDS011;4820;50.870;4.702;2022-12-29T09:49:03;6.70;;;2.10;;
9563;SDS011;4820;50.870;4.702;2022-12-29T09:51:38;7.90;;;2.40;;
9563;SDS011;4820;50.870;4.702;2022-12-29T09:54:24;7.28;;;2.20;;
9563;SDS011;4820;50.870;4.702;2022-12-29T09:57:13;11.75;;;2.55;;
9563;SDS011;4820;50.870;4.702;2022-12-29T09:59:46;6.50;;;2.10;;
9563;SDS011;4820;50.870;4.702;2022-12-29T10:04:58;10.00;;;2.25;;
9563;SDS011;4820;50.870;4.702;2022-12-29T10:13:36;5.30;;;2.10;;
9563;SDS011;4820;50.870;4.702;2022-12-29T10:16:01;5.75;;;1.83;;
9563;SDS011;4820;50.870;4.702;2022-12-29T10:18:46;9.38;;;2.15;;
9563;SDS011;4820;50.870;4.702;2022-12-29T10:21:42;7.78;;;2.50;;
9563;SDS011;4820;50.870;4.702;2022-12-29T10:24:10;7.68;;;2.00;;
9563;SDS011;4820;50.870;4.702;2022-12-29T10:26:42;7.95;;;2.30;;
9563;SDS011;4820;50.870;4.702;2022-12-29T10:29:19;10.23;;;2.25;;
9563;SDS011;4820;50.870;4.702;2022-12-29T10:34:18;5.20;;;1.90;;
9563;SDS011;4820;50.870;4.702;2022-12-29T10:36:58;8.90;;;1.85;;
9563;SDS011;4820;50.870;4.702;2022-12-29T10:39:40;7.10;;;1.75;;
9563;SDS011;4820;50.870;4.702;2022-12-29T10:44:46;7.97;;;2.30;;
9563;SDS011;4820;50.870;4.702;2022-12-29T10:47:16;11.70;;;2.40;;
9563;SDS011;4820;50.870;4.702;2022-12-29T10:49:47;6.25;;;1.80;;
9563;SDS011;4820;50.870;4.702;2022-12-29T10:52:14;6.65;;;2.30;;
9563;SDS011;4820;50.870;4.702;2022-12-29T10:54:49;6.97;;;2.00;;
9563;SDS011;4820;50.870;4.702;2022-12-29T10:57:38;7.93;;;2.17;;
9563;SDS011;4820;50.870;4.702;2022-12-29T11:00:12;4.70;;;2.00;;
9563;SDS011;4820;50.870;4.702;2022-12-29T11:08:39;8.60;;;2.35;;
9563;SDS011;4820;50.870;4.702;2022-12-29T11:11:14;6.75;;;2.50;;
9563;SDS011;4820;50.870;4.702;2022-12-29T11:13:56;8.85;;;2.40;;
9563;SDS011;4820;50.870;4.702;2022-12-29T11:16:27;8.25;;;2.13;;
9563;SDS011;4820;50.870;4.702;2022-12-29T11:18:55;5.07;;;1.85;;
9563;SDS011;4820;50.870;4.702;2022-12-29T11:21:35;6.88;;;2.20;;
9563;SDS011;4820;50.870;4.702;2022-12-29T11:24:24;5.18;;;2.10;;
9563;SDS011;4820;50.870;4.702;2022-12-29T11:26:53;7.45;;;2.10;;
9563;SDS011;4820;50.870;4.702;2022-12-29T11:29:40;6.72;;;2.10;;
9563;SDS011;4820;50.870;4.702;2022-12-29T11:32:26;6.50;;;2.13;;
9563;SDS011;4820;50.870;4.702;2022-12-29T11:34:55;10.38;;;2.50;;
9563;SDS011;4820;50.870;4.702;2022-12-29T11:37:25;7.55;;;2.20;;
9563;SDS011;4820;50.870;4.702;2022-12-29T11:40:02;6.40;;;2.00;;
9563;SDS011;4820;50.870;4.702;2022-12-29T11:42:42;8.35;;;2.47;;
9563;SDS011;4820;50.870;4.702;2022-12-29T11:47:42;6.65;;;1.95;;
9563;SDS011;4820;50.870;4.702;2022-12-29T11:50:16;5.47;;;2.00;;
9563;SDS011;4820;50.870;4.702;2022-12-29T11:52:48;6.78;;;2.05;;
9563;SDS011;4820;50.870;4.702;2022-12-29T11:55:21;7.03;;;2.10;;
9563;SDS011;4820;50.870;4.702;2022-12-29T11:57:49;7.75;;;3.03;;
9563;SDS011;4820;50.870;4.702;2022-12-29T12:00:21;9.25;;;2.00;;
9563;SDS011;4820;50.870;4.702;2022-12-29T12:03:03;5.65;;;2.10;;
9563;SDS011;4820;50.870;4.702;2022-12-29T12:05:37;7.82;;;2.20;;
9563;SDS011;4820;50.870;4.702;2022-12-29T12:16:20;7.97;;;2.10;;
9563;SDS011;4820;50.870;4.702;2022-12-29T12:19:03;5.70;;;2.08;;
9563;SDS011;4820;50.870;4.702;2022-12-29T12:21:52;8.55;;;2.45;;
9563;SDS011;4820;50.870;4.702;2022-12-29T12:25:02;8.85;;;2.28;;
9563;SDS011;4820;50.870;4.702;2022-12-29T12:27:36;6.90;;;2.35;;
9563;SDS011;4820;50.870;4.702;2022-12-29T12:30:18;5.90;;;2.30;;
9563;SDS011;4820;50.870;4.702;2022-12-29T12:32:46;7.90;;;2.20;;
9563;SDS011;4820;50.870;4.702;2022-12-29T12:43:39;7.68;;;2.38;;
9563;SDS011;4820;50.870;4.702;2022-12-29T12:46:19;6.00;;;2.00;;
9563;SDS011;4820;50.870;4.702;2022-12-29T13:00:15;7.85;;;2.25;;
9563;SDS011;4820;50.870;4.702;2022-12-29T13:02:50;8.95;;;2.42;;
9563;SDS011;4820;50.870;4.702;2022-12-29T13:16:02;8.90;;;2.60;;
9563;SDS011;4820;50.870;4.702;2022-12-29T13:18:51;6.40;;;2.05;;
9563;SDS011;4820;50.870;4.702;2022-12-29T13:26:51;4.65;;;1.65;;
9563;SDS011;4820;50.870;4.702;2022-12-29T13:35:41;5.70;;;1.92;;
9563;SDS011;4820;50.870;4.702;2022-12-29T13:40:44;7.80;;;2.17;;
9563;SDS011;4820;50.870;4.702;2022-12-29T13:43:14;9.20;;;2.10;;
9563;SDS011;4820;50.870;4.702;2022-12-29T13:45:43;9.55;;;2.28;;
9563;SDS011;4820;50.870;4.702;2022-12-29T13:48:16;8.07;;;2.40;;
9563;SDS011;4820;50.870;4.702;2022-12-29T13:50:52;7.47;;;2.40;;
9563;SDS011;4820;50.870;4.702;2022-12-29T13:56:14;8.93;;;2.20;;
9563;SDS011;4820;50.870;4.702;2022-12-29T14:05:02;8.75;;;2.85;;
9563;SDS011;4820;50.870;4.702;2022-12-29T14:08:01;6.53;;;2.08;;
9563;SDS011;4820;50.870;4.702;2022-12-29T14:10:31;12.02;;;3.35;;
9563;SDS011;4820;50.870;4.702;2022-12-29T14:13:04;9.10;;;2.78;;
9563;SDS011;4820;50.870;4.702;2022-12-29T14:15:37;8.90;;;2.92;;
9563;SDS011;4820;50.870;4.702;2022-12-29T14:18:14;8.77;;;2.90;;
9563;SDS011;4820;50.870;4.702;2022-12-29T14:20:50;8.55;;;3.00;;
9563;SDS011;4820;50.870;4.702;2022-12-29T14:23:43;8.52;;;2.33;;
9563;SDS011;4820;50.870;4.702;2022-12-29T14:28:40;10.90;;;2.78;;
9563;SDS011;4820;50.870;4.702;2022-12-29T14:33:39;9.07;;;2.78;;
9563;SDS011;4820;50.870;4.702;2022-12-29T14:36:19;10.25;;;2.63;;
9563;SDS011;4820;50.870;4.702;2022-12-29T14:42:06;9.85;;;2.80;;
9563;SDS011;4820;50.870;4.702;2022-12-29T14:44:50;9.38;;;2.38;;
9563;SDS011;4820;50.870;4.702;2022-12-29T14:55:32;9.60;;;2.80;;
9563;SDS011;4820;50.870;4.702;2022-12-29T14:58:02;8.23;;;2.80;;
9563;SDS011;4820;50.870;4.702;2022-12-29T15:00:32;8.00;;;2.53;;
9563;SDS011;4820;50.870;4.702;2022-12-29T15:03:04;8.15;;;2.83;;
9563;SDS011;4820;50.870;4.702;2022-12-29T15:05:41;9.43;;;2.50;;
9563;SDS011;4820;50.870;4.702;2022-12-29T15:08:11;8.02;;;2.70;;
9563;SDS011;4820;50.870;4.702;2022-12-29T15:10:54;6.20;;;2.75;;
9563;SDS011;4820;50.870;4.702;2022-12-29T15:16:22;10.00;;;2.53;;
9563;SDS011;4820;50.870;4.702;2022-12-29T15:18:54;8.35;;;2.65;;
9563;SDS011;4820;50.870;4.702;2022-12-29T15:21:24;8.73;;;2.50;;
9563;SDS011;4820;50.870;4.702;2022-12-29T15:23:51;12.43;;;3.03;;
9563;SDS011;4820;50.870;4.702;2022-12-29T15:26:17;8.13;;;2.33;;
9563;SDS011;4820;50.870;4.702;2022-12-29T15:28:47;10.23;;;2.88;;
9563;SDS011;4820;50.870;4.702;2022-12-29T15:33:45;9.25;;;2.30;;
9563;SDS011;4820;50.870;4.702;2022-12-29T15:36:22;5.68;;;1.80;;
9563;SDS011;4820;50.870;4.702;2022-12-29T15:38:50;3.90;;;1.60;;
9563;SDS011;4820;50.870;4.702;2022-12-29T15:44:24;6.88;;;2.10;;
9563;SDS011;4820;50.870;4.702;2022-12-29T15:46:56;5.05;;;1.95;;
9563;SDS011;4820;50.870;4.702;2022-12-29T15:49:22;3.20;;;1.38;;
9563;SDS011;4820;50.870;4.702;2022-12-29T15:51:49;5.00;;;1.60;;
9563;SDS011;4820;50.870;4.702;2022-12-29T15:54:15;4.45;;;1.85;;
9563;SDS011;4820;50.870;4.702;2022-12-29T15:56:43;6.18;;;1.67;;
9563;SDS011;4820;50.870;4.702;2022-12-29T16:02:11;5.03;;;1.50;;
9563;SDS011;4820;50.870;4.702;2022-12-29T16:04:37;7.50;;;2.00;;
9563;SDS011;4820;50.870;4.702;2022-12-29T16:07:04;4.65;;;1.80;;
9563;SDS011;4820;50.870;4.702;2022-12-29T16:09:36;7.57;;;2.05;;
9563;SDS011;4820;50.870;4.702;2022-12-29T16:12:17;4.97;;;1.80;;
9563;SDS011;4820;50.870;4.702;2022-12-29T16:14:47;6.60;;;1.73;;
9563;SDS011;4820;50.870;4.702;2022-12-29T16:17:17;4.72;;;2.17;;
9563;SDS011;4820;50.870;4.702;2022-12-29T16:19:50;6.53;;;1.90;;
9563;SDS011;4820;50.870;4.702;2022-12-29T16:22:22;7.35;;;2.30;;
9563;SDS011;4820;50.870;4.702;2022-12-29T16:24:58;6.90;;;2.33;;
9563;SDS011;4820;50.870;4.702;2022-12-29T16:27:36;8.05;;;2.40;;
9563;SDS011;4820;50.870;4.702;2022-12-29T16:30:20;6.72;;;2.10;;
9563;SDS011;4820;50.870;4.702;2022-12-29T16:32:54;7.40;;;2.53;;
9563;SDS011;4820;50.870;4.702;2022-12-29T16:35:26;7.70;;;2.25;;
9563;SDS011;4820;50.870;4.702;2022-12-29T16:41:13;5.82;;;2.55;;
9563;SDS011;4820;50.870;4.702;2022-12-29T16:43:33;10.52;;;2.80;;
9563;SDS011;4820;50.870;4.702;2022-12-29T16:46:28;12.07;;;2.92;;
9563;SDS011;4820;50.870;4.702;2022-12-29T16:48:54;9.35;;;2.83;;
9563;SDS011;4820;50.870;4.702;2022-12-29T16:51:31;10.52;;;2.85;;
9563;SDS011;4820;50.870;4.702;2022-12-29T16:54:00;7.35;;;3.03;;
9563;SDS011;4820;50.870;4.702;2022-12-29T16:56:29;10.63;;;3.28;;
9563;SDS011;4820;50.870;4.702;2022-12-29T17:01:27;12.27;;;3.05;;
9563;SDS011;4820;50.870;4.702;2022-12-29T17:03:54;9.25;;;3.08;;
9563;SDS011;4820;50.870;4.702;2022-12-29T17:06:24;8.30;;;3.15;;
9563;SDS011;4820;50.870;4.702;2022-12-29T17:08:50;8.23;;;3.30;;
9563;SDS011;4820;50.870;4.702;2022-12-29T17:14:21;8.73;;;2.83;;
9563;SDS011;4820;50.870;4.702;2022-12-29T17:17:05;8.48;;;3.03;;
9563;SDS011;4820;50.870;4.702;2022-12-29T17:19:37;11.52;;;3.15;;
9563;SDS011;4820;50.870;4.702;2022-12-29T17:22:13;12.50;;;3.42;;
9563;SDS011;4820;50.870;4.702;2022-12-29T17:24:41;11.80;;;3.20;;
9563;SDS011;4820;50.870;4.702;2022-12-29T17:27:07;8.43;;;3.05;;
9563;SDS011;4820;50.870;4.702;2022-12-29T17:29:43;11.43;;;3.35;;
9563;SDS011;4820;50.870;4.702;2022-12-29T17:32:11;12.18;;;2.88;;
9563;SDS011;4820;50.870;4.702;2022-12-29T17:34:39;8.50;;;2.92;;
9563;SDS011;4820;50.870;4.702;2022-12-29T17:39:54;8.43;;;2.72;;
9563;SDS011;4820;50.870;4.702;2022-12-29T17:42:19;7.22;;;2.50;;
9563;SDS011;4820;50.870;4.702;2022-12-29T17:44:45;7.88;;;2.72;;
9563;SDS011;4820;50.870;4.702;2022-12-29T17:47:12;7.60;;;2.95;;
9563;SDS011;4820;50.870;4.702;2022-12-29T17:49:39;8.98;;;3.17;;
9563;SDS011;4820;50.870;4.702;2022-12-29T17:52:10;11.63;;;2.88;;
9563;SDS011;4820;50.870;4.702;2022-12-29T17:54:41;7.97;;;2.90;;
9563;SDS011;4820;50.870;4.702;2022-12-29T17:57:14;11.77;;;3.15;;
9563;SDS011;4820;50.870;4.702;2022-12-29T17:59:41;9.13;;;2.30;;
9563;SDS011;4820;50.870;4.702;2022-12-29T18:02:27;10.50;;;3.15;;
9563;SDS011;4820;50.870;4.702;2022-12-29T18:04:55;9.00;;;2.50;;
9563;SDS011;4820;50.870;4.702;2022-12-29T18:07:27;8.77;;;2.55;;
9563;SDS011;4820;50.870;4.702;2022-12-29T18:09:54;9.50;;;2.67;;
9563;SDS011;4820;50.870;4.702;2022-12-29T18:12:38;8.70;;;2.58;;
9563;SDS011;4820;50.870;4.702;2022-12-29T18:15:09;8.73;;;2.40;;
9563;SDS011;4820;50.870;4.702;2022-12-29T18:17:43;13.40;;;3.30;;